Time;durP1;ratioP1;P1;durP2;ratioP2;P2;SDS_P1;SDS_P2;PMS_P1;PMS_P2;Temp;Humidity;BMP_temperature;BMP_pressure;BME280_temperature;BME280_humidity;BME280_pressure;Samples;Min_cycle;Max_cycle;Signal;HPM_P1;HPM_P2
2021/10/10 00:00:15;;;;;;;;;;;;;;;10.20;100.00;100144.53;4954204;28;19922;-76
2021/10/10 00:02:41;;;;;;;;;;;;;;;10.45;100.00;100136.53;4960138;28;20356;-76
2021/10/10 00:05:06;;;;;;;;;;;;;;;10.76;100.00;100139.53;4970604;28;19917;-74
2021/10/10 00:07:32;;;;;;;;;;;;;;;10.81;100.00;100124.88;4963874;28;19927;-75
2021/10/10 00:09:57;;;;;;;;;;;;;;;10.21;100.00;100138.50;4954554;28;20355;-75
2021/10/10 00:12:22;;;;;;;;;;;;;;;10.65;100.00;100144.84;4964490;28;19921;-76
2021/10/10 00:14:48;;;;;;;;;;;;;;;10.63;100.00;100138.03;4965897;28;19968;-75
2021/10/10 00:17:13;;;;;;;;;;;;;;;10.39;100.00;100134.88;4955763;28;19917;-76
2021/10/10 00:19:38;;;;;;;;;;;;;;;10.05;100.00;100137.84;4973623;28;19925;-76
2021/10/10 00:22:04;;;;;;;;;;;;;;;9.93;100.00;100132.84;4977653;28;20389;-76
2021/10/10 00:24:29;;;;;;;;;;;;;;;10.32;100.00;100138.41;4964749;28;19928;-76
2021/10/10 00:26:54;;;;;;;;;;;;;;;10.08;100.00;100141.25;4948358;28;19923;-76
2021/10/10 00:29:20;;;;;;;;;;;;;;;9.40;100.00;100134.25;4967393;28;19924;-75
2021/10/10 00:31:45;;;;;;;;;;;;;;;9.95;100.00;100135.41;4967515;28;20448;-76
2021/10/10 00:34:11;;;;;;;;;;;;;;;9.74;100.00;100136.47;4942891;28;19938;-76
2021/10/10 00:36:36;;;;;;;;;;;;;;;10.29;100.00;100135.88;4968845;28;20832;-76
2021/10/10 00:39:01;;;;;;;;;;;;;;;10.37;100.00;100136.63;4956308;28;19926;-76
2021/10/10 00:41:27;;;;;;;;;;;;;;;10.17;100.00;100135.97;4956709;28;19975;-75
2021/10/10 00:43:52;;;;;;;;;;;;;;;10.22;100.00;100139.38;4963166;28;20424;-76
2021/10/10 00:46:17;;;;;;;;;;;;;;;10.39;100.00;100132.31;4966180;28;19918;-76
2021/10/10 00:48:43;;;;;;;;;;;;;;;10.17;100.00;100142.00;4946791;28;19920;-76
2021/10/10 00:51:08;;;;;;;;;;;;;;;10.30;100.00;100141.88;4907898;28;20422;-75
2021/10/10 00:53:35;;;;;;;;;;;;;;;10.26;100.00;100144.47;4914726;28;20379;-76
2021/10/10 00:56:00;;;;;;;;;;;;;;;10.20;100.00;100152.25;4948709;28;20415;-76
2021/10/10 00:58:25;;;;;;;;;;;;;;;10.32;100.00;100151.28;4968717;28;19964;-76
2021/10/10 01:00:51;;;;;;;;;;;;;;;10.23;100.00;100148.78;4979028;28;19971;-76
2021/10/10 01:03:17;;;;;;;;;;;;;;;9.95;100.00;100151.69;4937667;28;19924;-76
2021/10/10 01:05:42;;;;;;;;;;;;;;;9.71;100.00;100149.38;4944873;28;19920;-74
2021/10/10 01:08:07;;;;;;;;;;;;;;;9.79;100.00;100150.16;4905307;28;19953;-74
2021/10/10 01:10:33;;;;;;;;;;;;;;;9.86;100.00;100141.50;4975506;28;19954;-75
2021/10/10 01:12:58;;;;;;;;;;;;;;;9.28;100.00;100147.19;4958992;28;19923;-76
2021/10/10 01:15:24;;;;;;;;;;;;;;;9.80;100.00;100146.69;4967781;28;19923;-75
2021/10/10 01:17:50;;;;;;;;;;;;;;;9.92;100.00;100145.72;4962424;28;19958;-75
2021/10/10 01:20:15;;;;;;;;;;;;;;;9.90;100.00;100143.19;4970099;28;19931;-76
2021/10/10 01:22:41;;;;;;;;;;;;;;;9.65;100.00;100142.56;4909960;28;19927;-76
2021/10/10 01:25:06;;;;;;;;;;;;;;;9.58;100.00;100141.78;4969446;28;19923;-75
2021/10/10 01:27:32;;;;;;;;;;;;;;;9.41;100.00;100143.66;4963244;28;19977;-76
2021/10/10 01:29:57;;;;;;;;;;;;;;;9.37;100.00;100136.81;4946095;28;19923;-75
2021/10/10 01:32:22;;;;;;;;;;;;;;;9.39;100.00;100140.22;4912637;28;19921;-76
2021/10/10 01:34:48;;;;;;;;;;;;;;;9.22;100.00;100132.69;4941682;28;20289;-75
2021/10/10 01:37:14;;;;;;;;;;;;;;;8.98;100.00;100134.56;4978486;28;19971;-75
2021/10/10 01:39:39;;;;;;;;;;;;;;;9.10;100.00;100133.63;4961193;28;20368;-75
2021/10/10 01:42:04;;;;;;;;;;;;;;;9.19;100.00;100127.53;4965313;28;19923;-76
2021/10/10 01:44:30;;;;;;;;;;;;;;;9.32;100.00;100123.16;4958874;28;19996;-76
2021/10/10 01:46:55;;;;;;;;;;;;;;;9.62;100.00;100120.31;4970391;28;20426;-76
2021/10/10 01:49:21;;;;;;;;;;;;;;;9.67;100.00;100125.41;4952710;28;20012;-76
2021/10/10 01:51:46;;;;;;;;;;;;;;;9.85;100.00;100129.47;4949639;28;20474;-75
2021/10/10 01:54:11;;;;;;;;;;;;;;;9.66;100.00;100125.41;4948941;28;20701;-75
2021/10/10 01:56:36;;;;;;;;;;;;;;;9.62;100.00;100117.75;4963789;28;19960;-76
2021/10/10 01:59:02;;;;;;;;;;;;;;;9.49;100.00;100121.31;4965908;28;19920;-75
2021/10/10 02:01:27;;;;;;;;;;;;;;;9.36;100.00;100117.13;4974218;28;19919;-76
2021/10/10 02:03:52;;;;;;;;;;;;;;;9.08;100.00;100117.38;4971254;28;19923;-76
2021/10/10 02:06:18;;;;;;;;;;;;;;;9.42;100.00;100115.38;4975318;28;20486;-76
2021/10/10 02:08:43;;;;;;;;;;;;;;;9.48;100.00;100119.56;4952154;28;19920;-74
2021/10/10 02:11:08;;;;;;;;;;;;;;;9.37;100.00;100116.25;4958700;28;20282;-76
2021/10/10 02:13:34;;;;;;;;;;;;;;;9.23;100.00;100113.81;4915715;28;19923;-76
2021/10/10 02:15:59;;;;;;;;;;;;;;;9.53;100.00;100112.66;4968617;28;19917;-76
2021/10/10 02:18:24;;;;;;;;;;;;;;;9.36;100.00;100114.56;4965441;28;19922;-76
2021/10/10 02:20:50;;;;;;;;;;;;;;;9.02;100.00;100106.28;4962966;28;19925;-76
2021/10/10 02:23:15;;;;;;;;;;;;;;;9.46;100.00;100111.03;4969768;28;19989;-75
2021/10/10 02:25:41;;;;;;;;;;;;;;;8.81;100.00;100112.44;4948877;28;19923;-74
2021/10/10 02:28:06;;;;;;;;;;;;;;;8.47;100.00;100112.66;4969916;28;19918;-76
2021/10/10 02:30:31;;;;;;;;;;;;;;;8.94;100.00;100112.34;4947190;28;20022;-76
2021/10/10 02:32:56;;;;;;;;;;;;;;;8.90;100.00;100105.50;4948909;28;19940;-76
2021/10/10 02:35:22;;;;;;;;;;;;;;;9.01;100.00;100108.00;4952809;28;20006;-76
2021/10/10 02:37:47;;;;;;;;;;;;;;;8.84;100.00;100104.72;4974523;28;20302;-76
2021/10/10 02:40:13;;;;;;;;;;;;;;;8.60;100.00;100106.59;4966073;28;19919;-76
2021/10/10 02:42:38;;;;;;;;;;;;;;;8.67;100.00;100107.41;4942533;28;19919;-75
2021/10/10 02:45:05;;;;;;;;;;;;;;;8.74;100.00;100104.78;4970819;28;19919;-75
2021/10/10 02:47:30;;;;;;;;;;;;;;;8.72;100.00;100101.34;4965973;28;20385;-74
2021/10/10 02:49:55;;;;;;;;;;;;;;;8.78;100.00;100111.59;4954677;28;19924;-76
2021/10/10 02:52:21;;;;;;;;;;;;;;;8.69;100.00;100110.78;4956477;28;19927;-76
2021/10/10 02:54:47;;;;;;;;;;;;;;;8.88;100.00;100111.53;4910807;28;20366;-76
2021/10/10 02:57:12;;;;;;;;;;;;;;;8.70;100.00;100110.78;4926015;28;19981;-76
2021/10/10 02:59:37;;;;;;;;;;;;;;;8.38;100.00;100111.78;4913154;28;19978;-76
2021/10/10 03:02:03;;;;;;;;;;;;;;;8.69;100.00;100111.66;4962416;28;19962;-75
2021/10/10 03:04:28;;;;;;;;;;;;;;;8.72;100.00;100109.06;4952150;28;19921;-75
2021/10/10 03:06:53;;;;;;;;;;;;;;;8.71;100.00;100115.06;4967533;28;19918;-76
2021/10/10 03:09:19;;;;;;;;;;;;;;;8.57;100.00;100109.16;4959842;28;19930;-74
2021/10/10 03:11:44;;;;;;;;;;;;;;;8.64;100.00;100108.25;4975535;28;20013;-76
2021/10/10 03:14:09;;;;;;;;;;;;;;;8.58;100.00;100110.88;4979315;28;19925;-76
2021/10/10 03:16:35;;;;;;;;;;;;;;;8.65;100.00;100109.13;4904142;28;19930;-76
2021/10/10 03:19:00;;;;;;;;;;;;;;;8.69;100.00;100103.97;4960588;28;20012;-76
2021/10/10 03:21:25;;;;;;;;;;;;;;;8.89;100.00;100098.66;4956535;28;19921;-76
2021/10/10 03:23:51;;;;;;;;;;;;;;;8.63;100.00;100106.56;4920804;28;19917;-75
2021/10/10 03:26:16;;;;;;;;;;;;;;;8.48;100.00;100099.78;4957627;28;19924;-76
2021/10/10 03:28:41;;;;;;;;;;;;;;;8.26;100.00;100101.59;4954851;28;19915;-75
2021/10/10 03:31:07;;;;;;;;;;;;;;;8.26;100.00;100098.19;4960125;28;19917;-75
2021/10/10 03:33:32;;;;;;;;;;;;;;;8.30;100.00;100100.72;4949992;28;19925;-76
2021/10/10 03:35:57;;;;;;;;;;;;;;;8.32;100.00;100106.69;4962690;28;20010;-76
2021/10/10 03:38:22;;;;;;;;;;;;;;;8.53;100.00;100099.75;4968204;28;19917;-75
2021/10/10 03:40:48;;;;;;;;;;;;;;;8.37;100.00;100102.41;4898456;28;19926;-76
2021/10/10 03:43:13;;;;;;;;;;;;;;;8.51;100.00;100101.50;4976838;28;19923;-76
2021/10/10 03:45:38;;;;;;;;;;;;;;;8.52;100.00;100100.63;4963661;28;19919;-76
2021/10/10 03:48:04;;;;;;;;;;;;;;;8.37;100.00;100099.84;4911009;28;20017;-76
2021/10/10 03:50:29;;;;;;;;;;;;;;;8.47;100.00;100099.81;4960218;28;19927;-76
2021/10/10 03:52:55;;;;;;;;;;;;;;;8.56;100.00;100099.75;4966160;28;19915;-75
2021/10/10 03:55:32;;;;;;;;;;;;;;;8.57;100.00;100101.44;4973696;28;19971;-76
2021/10/10 03:57:58;;;;;;;;;;;;;;;8.59;100.00;100094.59;4969845;28;19989;-76
2021/10/10 04:00:24;;;;;;;;;;;;;;;8.26;100.00;100093.91;4954964;28;19923;-75
2021/10/10 04:02:50;;;;;;;;;;;;;;;8.16;100.00;100097.34;4944529;28;19919;-75
2021/10/10 04:05:28;;;;;;;;;;;;;;;8.30;100.00;100097.28;4911839;28;19917;-76
2021/10/10 04:07:53;;;;;;;;;;;;;;;8.48;100.00;100094.66;4968539;28;20284;-76
2021/10/10 04:10:18;;;;;;;;;;;;;;;7.98;100.00;100095.72;4970590;28;19917;-76
2021/10/10 04:12:44;;;;;;;;;;;;;;;8.11;100.00;100097.38;4961443;28;19954;-76
2021/10/10 04:15:09;;;;;;;;;;;;;;;7.99;100.00;100096.59;4948178;28;20879;-76
2021/10/10 04:17:35;;;;;;;;;;;;;;;7.90;100.00;100089.78;4960998;28;19923;-76
2021/10/10 04:20:00;;;;;;;;;;;;;;;7.96;100.00;100094.91;4972206;28;19921;-76
2021/10/10 04:22:25;;;;;;;;;;;;;;;7.83;100.00;100094.06;4958643;28;19919;-76
2021/10/10 04:24:51;;;;;;;;;;;;;;;7.59;100.00;100094.97;4953123;28;19917;-76
2021/10/10 04:27:16;;;;;;;;;;;;;;;7.92;100.00;100094.03;4909744;28;19921;-75
2021/10/10 04:29:41;;;;;;;;;;;;;;;7.79;100.00;100092.38;4959813;28;20347;-75
2021/10/10 04:32:06;;;;;;;;;;;;;;;7.81;100.00;100088.09;4901018;28;19970;-76
2021/10/10 04:34:32;;;;;;;;;;;;;;;7.61;100.00;100088.16;4960376;28;19919;-76
2021/10/10 04:36:57;;;;;;;;;;;;;;;7.46;100.00;100081.34;4947147;28;19930;-76
2021/10/10 04:39:22;;;;;;;;;;;;;;;7.41;100.00;100082.22;4967243;28;20609;-76
2021/10/10 04:41:48;;;;;;;;;;;;;;;7.52;100.00;100080.47;4954618;28;19978;-75
2021/10/10 04:44:13;;;;;;;;;;;;;;;7.64;100.00;100077.03;4959706;28;19917;-75
2021/10/10 04:46:38;;;;;;;;;;;;;;;7.29;100.00;100077.97;4948413;28;20338;-76
2021/10/10 04:49:04;;;;;;;;;;;;;;;7.35;100.00;100075.41;4970595;28;19917;-76
2021/10/10 04:51:29;;;;;;;;;;;;;;;7.17;100.00;100072.88;4955929;28;19927;-76
2021/10/10 04:53:55;;;;;;;;;;;;;;;7.31;100.00;100066.00;4958641;28;19919;-76
2021/10/10 04:56:20;;;;;;;;;;;;;;;7.30;100.00;100066.88;4896261;28;19923;-76
2021/10/10 04:58:45;;;;;;;;;;;;;;;7.14;100.00;100068.59;4951652;28;19915;-76
2021/10/10 05:01:11;;;;;;;;;;;;;;;6.84;100.00;100065.19;4961591;28;19922;-76
2021/10/10 05:03:36;;;;;;;;;;;;;;;6.88;100.00;100071.16;4958018;28;19917;-76
2021/10/10 05:06:02;;;;;;;;;;;;;;;6.78;100.00;100066.91;4947818;28;19930;-75
2021/10/10 05:08:28;;;;;;;;;;;;;;;6.69;100.00;100070.28;4911021;28;19948;-76
2021/10/10 05:10:53;;;;;;;;;;;;;;;6.87;100.00;100061.78;4948144;28;19919;-75
2021/10/10 05:13:19;;;;;;;;;;;;;;;7.06;100.00;100060.06;4951617;28;19915;-76
2021/10/10 05:15:44;;;;;;;;;;;;;;;7.18;100.00;100060.03;4958874;28;19977;-76
2021/10/10 05:18:09;;;;;;;;;;;;;;;7.03;100.00;100060.91;4971940;28;19927;-75
2021/10/10 05:20:35;;;;;;;;;;;;;;;7.31;100.00;100058.31;4960242;28;19961;-75
2021/10/10 05:23:00;;;;;;;;;;;;;;;7.27;100.00;100054.88;4964854;28;19923;-75
2021/10/10 05:25:25;;;;;;;;;;;;;;;7.28;100.00;100050.66;4952517;28;19942;-76
2021/10/10 05:27:51;;;;;;;;;;;;;;;7.18;100.00;100051.50;4952558;28;19917;-75
2021/10/10 05:30:16;;;;;;;;;;;;;;;7.85;100.00;100048.75;4964760;28;19957;-76
2021/10/10 05:32:41;;;;;;;;;;;;;;;7.45;100.00;100048.88;4953240;28;19929;-76
2021/10/10 05:35:07;;;;;;;;;;;;;;;7.62;100.00;100047.97;4944405;28;19914;-76
2021/10/10 05:37:32;;;;;;;;;;;;;;;7.90;100.00;100039.34;4896640;28;20004;-76
2021/10/10 05:39:57;;;;;;;;;;;;;;;7.94;100.00;100042.75;4967537;28;19921;-77
2021/10/10 05:42:23;;;;;;;;;;;;;;;7.96;100.00;100044.44;4976042;28;19973;-76
2021/10/10 05:44:48;;;;;;;;;;;;;;;7.75;100.00;100041.94;4977507;28;19919;-77
2021/10/10 05:47:13;;;;;;;;;;;;;;;7.96;100.00;100035.91;4966000;28;19913;-75
2021/10/10 05:49:39;;;;;;;;;;;;;;;8.08;100.00;100037.56;4963088;28;19963;-75
2021/10/10 05:52:05;;;;;;;;;;;;;;;8.05;100.00;100035.84;4944375;28;19923;-76
2021/10/10 05:54:32;;;;;;;;;;;;;;;7.90;100.00;100041.91;4940917;28;19928;-76
2021/10/10 05:57:01;;;;;;;;;;;;;;;7.85;100.00;100037.66;4915290;28;19934;-76
2021/10/10 05:59:29;;;;;;;;;;;;;;;8.11;100.00;100034.97;4946337;28;19916;-76
2021/10/10 06:01:54;;;;;;;;;;;;;;;8.31;100.00;100040.81;4957713;28;19923;-76
2021/10/10 06:04:19;;;;;;;;;;;;;;;8.11;100.00;100040.94;4938909;28;20062;-76
2021/10/10 06:06:45;;;;;;;;;;;;;;;8.01;100.00;100041.00;4975121;28;19917;-76
2021/10/10 06:09:10;;;;;;;;;;;;;;;8.24;100.00;100041.72;4974550;28;19929;-75
2021/10/10 06:11:35;;;;;;;;;;;;;;;8.20;100.00;100044.31;4952589;28;19917;-76
2021/10/10 06:14:01;;;;;;;;;;;;;;;8.23;100.00;100040.00;4936717;28;20013;-76
2021/10/10 06:16:27;;;;;;;;;;;;;;;8.45;100.00;100042.50;4964796;28;19923;-75
2021/10/10 06:18:52;;;;;;;;;;;;;;;8.50;100.00;100040.75;4951001;28;19918;-75
2021/10/10 06:21:18;;;;;;;;;;;;;;;8.56;100.00;100038.13;4965308;28;19930;-76
2021/10/10 06:23:43;;;;;;;;;;;;;;;8.64;100.00;100041.47;4970372;28;20549;-75
2021/10/10 06:26:08;;;;;;;;;;;;;;;8.92;100.00;100041.28;4951556;28;19950;-75
2021/10/10 06:28:34;;;;;;;;;;;;;;;8.83;100.00;100049.06;4956206;28;19957;-76
2021/10/10 06:30:59;;;;;;;;;;;;;;;8.91;100.00;100049.84;4956452;28;19934;-75
2021/10/10 06:33:24;;;;;;;;;;;;;;;8.87;100.00;100050.72;4946613;28;19936;-75
2021/10/10 06:35:50;;;;;;;;;;;;;;;8.91;100.00;100049.84;4892632;28;20050;-76
2021/10/10 06:38:15;;;;;;;;;;;;;;;8.83;100.00;100046.50;4950496;28;19918;-75
2021/10/10 06:40:40;;;;;;;;;;;;;;;9.09;100.00;100054.81;4950104;28;19923;-76
2021/10/10 06:43:06;;;;;;;;;;;;;;;9.27;100.00;100055.53;4966707;28;19919;-76
2021/10/10 06:45:31;;;;;;;;;;;;;;;9.00;100.00;100057.47;4961566;28;19990;-76
2021/10/10 06:47:56;;;;;;;;;;;;;;;9.15;100.00;100054.78;4954599;28;20026;-76
2021/10/10 06:50:21;;;;;;;;;;;;;;;9.27;100.00;100058.09;4951389;28;19966;-75
2021/10/10 06:52:47;;;;;;;;;;;;;;;9.25;100.00;100057.25;4973479;28;19919;-75
2021/10/10 06:55:15;;;;;;;;;;;;;;;9.35;100.00;100056.28;4960400;28;20289;-76
2021/10/10 06:57:40;;;;;;;;;;;;;;;9.21;100.00;100057.31;4900649;28;20417;-76
2021/10/10 07:00:06;;;;;;;;;;;;;;;9.39;100.00;100063.09;4959060;28;19929;-75
2021/10/10 07:02:31;;;;;;;;;;;;;;;9.29;100.00;100061.50;4946200;28;20348;-76
2021/10/10 07:04:57;;;;;;;;;;;;;;;9.80;100.00;100072.09;4959113;28;20814;-76
2021/10/10 07:07:23;;;;;;;;;;;;;;;9.97;100.00;100072.75;4947116;28;19921;-76
2021/10/10 07:09:48;;;;;;;;;;;;;;;9.95;100.00;100069.34;4957062;28;19923;-76
2021/10/10 07:12:14;;;;;;;;;;;;;;;10.30;100.00;100062.06;4961996;28;19921;-75
2021/10/10 07:14:39;;;;;;;;;;;;;;;10.73;100.00;100059.72;4970085;28;20269;-76
2021/10/10 07:17:04;;;;;;;;;;;;;;;10.51;100.00;100068.63;4893652;28;19927;-75
2021/10/10 07:19:39;;;;;;;;;;;;;;;10.37;100.00;100064.53;4891602;28;19938;-77
2021/10/10 07:22:16;;;;;;;;;;;;;;;10.39;100.00;100067.09;4940049;28;20340;-75
2021/10/10 07:27:21;;;;;;;;;;;;;;;10.82;100.00;100064.72;4958035;28;19919;-77
2021/10/10 07:29:47;;;;;;;;;;;;;;;10.97;100.00;100057.59;4898209;28;20013;-75
2021/10/10 07:32:12;;;;;;;;;;;;;;;11.48;100.00;100052.41;4934933;28;20008;-75
2021/10/10 07:34:37;;;;;;;;;;;;;;;11.75;100.00;100052.78;4948610;28;19911;-75
2021/10/10 07:37:03;;;;;;;;;;;;;;;11.79;100.00;100047.50;4922820;28;19927;-76
2021/10/10 07:39:28;;;;;;;;;;;;;;;11.49;100.00;100052.41;4944975;28;20445;-76
2021/10/10 07:41:54;;;;;;;;;;;;;;;11.75;100.00;100050.19;4955033;28;19975;-75
2021/10/10 07:44:19;;;;;;;;;;;;;;;11.84;100.00;100055.16;4973920;28;20419;-76
2021/10/10 07:46:54;;;;;;;;;;;;;;;11.39;100.00;100053.44;4947043;28;19931;-76
2021/10/10 07:49:19;;;;;;;;;;;;;;;11.97;100.00;100060.94;4953504;28;19926;-76
2021/10/10 07:51:45;;;;;;;;;;;;;;;12.11;100.00;100056.31;4961944;28;20526;-76
2021/10/10 07:54:10;;;;;;;;;;;;;;;12.35;100.00;100050.63;4960008;28;19922;-76
2021/10/10 07:56:36;;;;;;;;;;;;;;;11.88;100.00;100049.06;4949674;28;20461;-76
2021/10/10 07:59:01;;;;;;;;;;;;;;;12.10;100.00;100052.91;4964503;28;20336;-76
2021/10/10 08:01:27;;;;;;;;;;;;;;;12.40;100.00;100053.09;4959288;28;19950;-75
2021/10/10 08:03:52;;;;;;;;;;;;;;;12.78;98.25;100056.53;4959110;28;19978;-76
2021/10/10 08:06:17;;;;;;;;;;;;;;;13.10;95.84;100054.91;4972161;28;19915;-76
2021/10/10 08:08:43;;;;;;;;;;;;;;;13.19;94.23;100055.50;4964198;28;19919;-76
2021/10/10 08:11:08;;;;;;;;;;;;;;;12.87;94.57;100050.31;4968142;28;19970;-76
2021/10/10 08:13:34;;;;;;;;;;;;;;;12.60;95.61;100057.81;4947700;28;19917;-75
2021/10/10 08:15:59;;;;;;;;;;;;;;;13.21;96.56;100052.91;4963225;28;19926;-75
2021/10/10 08:18:24;;;;;;;;;;;;;;;13.24;92.65;100050.22;4933555;28;19922;-75
2021/10/10 08:20:50;;;;;;;;;;;;;;;13.46;95.42;100062.63;4965482;28;19958;-75
2021/10/10 08:23:15;;;;;;;;;;;;;;;13.25;94.26;100054.53;4959089;28;19919;-76
2021/10/10 08:25:40;;;;;;;;;;;;;;;13.52;96.08;100067.63;4931579;28;19994;-76
2021/10/10 08:28:06;;;;;;;;;;;;;;;13.62;94.99;100069.09;4959574;28;19921;-76
2021/10/10 08:30:31;;;;;;;;;;;;;;;13.93;94.78;100065.63;4960801;28;19923;-75
2021/10/10 08:32:56;;;;;;;;;;;;;;;14.21;93.91;100063.09;4904357;28;19919;-76
2021/10/10 08:35:22;;;;;;;;;;;;;;;14.21;94.41;100063.94;4943630;28;19913;-76
2021/10/10 08:37:47;;;;;;;;;;;;;;;14.27;94.67;100067.22;4956121;28;19934;-76
2021/10/10 08:40:13;;;;;;;;;;;;;;;14.46;94.84;100065.78;4926267;28;19915;-76
2021/10/10 08:42:40;;;;;;;;;;;;;;;14.54;92.33;100076.78;4959800;28;20323;-75
2021/10/10 08:45:21;;;;;;;;;;;;;;;14.57;95.32;100068.06;4970546;28;20383;-77
2021/10/10 08:47:46;;;;;;;;;;;;;;;14.79;94.25;100065.66;4924266;28;20058;-76
2021/10/10 08:50:12;;;;;;;;;;;;;;;14.84;91.91;100068.94;4973111;28;19926;-76
2021/10/10 08:52:38;;;;;;;;;;;;;;;14.20;95.10;100057.03;4955866;28;19968;-75
2021/10/10 08:55:05;;;;;;;;;;;;;;;14.36;95.81;100051.41;4906323;28;20609;-76
2021/10/10 08:57:30;;;;;;;;;;;;;;;13.97;95.24;100064.66;4962176;28;20311;-76
2021/10/10 09:00:01;;;;;;;;;;;;;;;14.78;93.03;100053.56;4912008;28;19970;-76
2021/10/10 09:02:31;;;;;;;;;;;;;;;15.27;89.08;100051.94;4967296;28;19921;-75
2021/10/10 09:04:56;;;;;;;;;;;;;;;15.29;86.65;100054.47;4948079;28;20414;-77
2021/10/10 09:07:22;;;;;;;;;;;;;;;15.19;89.41;100053.94;4970971;28;19973;-77
2021/10/10 09:09:47;;;;;;;;;;;;;;;15.85;84.44;100055.09;4951082;28;20322;-77
2021/10/10 09:12:12;;;;;;;;;;;;;;;14.94;92.97;100064.28;4957696;28;19921;-77
2021/10/10 09:14:42;;;;;;;;;;;;;;;16.12;86.79;100061.91;4906152;28;19977;-77
2021/10/10 09:17:11;;;;;;;;;;;;;;;16.28;84.83;100063.88;4963581;28;19940;-77
2021/10/10 09:19:37;;;;;;;;;;;;;;;16.27;84.11;100066.53;4970237;28;20008;-76
2021/10/10 09:22:04;;;;;;;;;;;;;;;16.14;83.80;100060.94;4930791;28;20459;-76
2021/10/10 09:24:30;;;;;;;;;;;;;;;16.71;81.38;100056.97;4919062;28;19917;-77
2021/10/10 09:26:55;;;;;;;;;;;;;;;16.34;79.44;100062.78;4938676;28;19914;-77
2021/10/10 09:29:37;;;;;;;;;;;;;;;16.93;79.33;100056.13;4968398;28;19923;-77
2021/10/10 09:32:12;;;;;;;;;;;;;;;17.92;74.83;100063.16;4974619;28;19917;-76
2021/10/10 09:34:38;;;;;;;;;;;;;;;17.10;78.87;100074.47;4960858;28;19935;-76
2021/10/10 09:37:05;;;;;;;;;;;;;;;16.54;76.23;100077.59;4899359;28;19962;-76
2021/10/10 09:39:34;;;;;;;;;;;;;;;16.07;77.42;100080.25;4949138;28;19925;-77
2021/10/10 09:42:01;;;;;;;;;;;;;;;16.83;71.72;100073.00;4955158;28;19919;-77
2021/10/10 09:44:34;;;;;;;;;;;;;;;15.77;69.94;100072.69;4936812;28;19961;-76
2021/10/10 09:47:00;;;;;;;;;;;;;;;15.53;73.97;100078.72;4947359;28;19923;-77
2021/10/10 09:49:30;;;;;;;;;;;;;;;15.41;68.95;100075.66;4943199;28;19919;-76
2021/10/10 09:52:22;;;;;;;;;;;;;;;15.69;66.38;100069.47;4963790;28;20406;-76
2021/10/10 09:54:53;;;;;;;;;;;;;;;15.88;77.13;100070.56;4926937;28;19925;-77
2021/10/10 09:57:19;;;;;;;;;;;;;;;15.85;68.13;100062.88;4953981;28;19958;-77
2021/10/10 09:59:44;;;;;;;;;;;;;;;17.01;72.57;100069.66;4935253;28;19919;-76
2021/10/10 10:02:09;;;;;;;;;;;;;;;16.66;75.35;100074.50;4973388;28;19976;-77
2021/10/10 10:04:43;;;;;;;;;;;;;;;17.19;82.32;100077.63;4965853;28;19938;-76
2021/10/10 10:07:09;;;;;;;;;;;;;;;16.54;80.64;100075.00;4969717;28;19923;-76
2021/10/10 10:09:34;;;;;;;;;;;;;;;16.18;77.81;100072.06;4928762;28;19925;-76
2021/10/10 10:12:00;;;;;;;;;;;;;;;16.08;68.92;100071.59;4906091;28;19920;-76
2021/10/10 10:14:25;;;;;;;;;;;;;;;18.31;64.30;100059.63;4971991;28;19950;-77
2021/10/10 10:16:50;;;;;;;;;;;;;;;18.63;60.34;100050.25;4965765;28;19946;-77
2021/10/10 10:19:20;;;;;;;;;;;;;;;19.20;57.67;100040.50;4970764;28;19962;-76
2021/10/10 10:21:57;;;;;;;;;;;;;;;19.22;54.58;100037.81;4958784;28;19919;-77
2021/10/10 10:24:23;;;;;;;;;;;;;;;19.92;57.86;100032.44;4951095;28;19918;-76
2021/10/10 10:26:48;;;;;;;;;;;;;;;20.03;52.45;100030.09;4968986;28;19920;-77
2021/10/10 10:29:18;;;;;;;;;;;;;;;19.61;57.02;100029.69;4970218;28;19966;-76
2021/10/10 10:31:45;;;;;;;;;;;;;;;18.66;54.94;100026.66;4957061;28;20365;-77
2021/10/10 10:34:21;;;;;;;;;;;;;;;18.91;57.95;100022.88;4928075;28;20398;-77
2021/10/10 10:36:50;;;;;;;;;;;;;;;19.15;64.53;100026.81;4958832;28;19927;-77
2021/10/10 10:39:34;;;;;;;;;;;;;;;19.04;60.88;100016.09;4960678;28;19927;-77
2021/10/10 10:41:59;;;;;;;;;;;;;;;18.02;63.84;100014.06;4929094;28;19923;-77
2021/10/10 10:44:38;;;;;;;;;;;;;;;18.53;68.17;100008.13;4947454;28;20615;-76
2021/10/10 10:47:11;;;;;;;;;;;;;;;18.91;66.27;100017.66;4960978;28;19923;-77
2021/10/10 10:50:06;;;;;;;;;;;;;;;18.88;60.40;100012.56;4931134;28;19988;-77
2021/10/10 10:52:33;;;;;;;;;;;;;;;18.61;61.96;100020.81;4933960;28;19975;-77
2021/10/10 10:55:17;;;;;;;;;;;;;;;18.41;64.75;100023.56;4952770;28;19938;-77
2021/10/10 10:57:47;;;;;;;;;;;;;;;18.69;55.92;100031.72;4935083;28;19927;-77
2021/10/10 11:00:13;;;;;;;;;;;;;;;18.55;61.62;100036.75;4971539;28;20299;-77
2021/10/10 11:02:48;;;;;;;;;;;;;;;19.32;56.35;100036.44;4893154;28;19934;-77
2021/10/10 11:05:28;;;;;;;;;;;;;;;19.68;60.80;100029.34;4950328;28;20442;-77
2021/10/10 11:07:53;;;;;;;;;;;;;;;18.41;57.72;100033.97;4892945;28;20052;-77
2021/10/10 11:10:19;;;;;;;;;;;;;;;18.81;60.62;100033.72;4961760;28;20031;-77
2021/10/10 11:12:44;;;;;;;;;;;;;;;18.49;62.03;100037.88;4960998;28;20246;-76
2021/10/10 11:15:10;;;;;;;;;;;;;;;17.73;65.43;100047.50;4942763;28;19969;-77
2021/10/10 11:17:36;;;;;;;;;;;;;;;17.86;74.43;100053.88;4966095;28;19921;-77
2021/10/10 11:20:02;;;;;;;;;;;;;;;17.31;72.16;100056.25;4953656;28;19919;-76
2021/10/10 11:22:27;;;;;;;;;;;;;;;17.13;66.27;100058.75;4949433;28;19997;-75
2021/10/10 11:24:53;;;;;;;;;;;;;;;17.31;72.13;100056.25;4960084;28;19919;-76
2021/10/10 11:27:20;;;;;;;;;;;;;;;17.96;66.92;100049.91;4934413;28;19928;-76
2021/10/10 11:29:49;;;;;;;;;;;;;;;18.19;65.10;100037.59;4969505;28;20393;-75
2021/10/10 11:32:15;;;;;;;;;;;;;;;19.53;71.80;100033.63;4973631;28;19926;-75
2021/10/10 11:34:40;;;;;;;;;;;;;;;18.48;57.61;100027.56;4965805;28;19923;-76
2021/10/10 11:37:11;;;;;;;;;;;;;;;18.53;65.56;100028.16;4946359;28;19932;-76
2021/10/10 11:39:36;;;;;;;;;;;;;;;18.43;61.38;100013.88;4945705;28;21042;-76
2021/10/10 11:42:06;;;;;;;;;;;;;;;19.88;60.47;100015.22;4961926;28;19928;-76
2021/10/10 11:44:50;;;;;;;;;;;;;;;20.17;56.51;100006.63;4957610;28;19923;-75
2021/10/10 11:47:22;;;;;;;;;;;;;;;20.46;56.85;100002.38;4962412;28;19938;-76
2021/10/10 11:49:57;;;;;;;;;;;;;;;18.74;59.15;100001.00;4966026;28;19921;-76
2021/10/10 11:55:00;;;;;;;;;;;;;;;19.28;66.58;100000.94;4927937;28;19931;-75
2021/10/10 11:57:26;;;;;;;;;;;;;;;20.25;60.86;99998.34;4953104;28;19969;-75
2021/10/10 11:59:52;;;;;;;;;;;;;;;18.81;60.84;100001.59;4952580;28;19923;-76
2021/10/10 12:02:18;;;;;;;;;;;;;;;20.09;55.37;99994.91;4962110;28;19923;-75
2021/10/10 12:04:47;;;;;;;;;;;;;;;21.11;52.93;99988.16;4959856;28;21100;-75
2021/10/10 12:07:12;;;;;;;;;;;;;;;20.98;53.91;99987.22;4950255;28;19930;-75
2021/10/10 12:09:48;;;;;;;;;;;;;;;19.80;54.10;99986.91;4905955;28;20321;-74
2021/10/10 12:12:14;;;;;;;;;;;;;;;21.34;53.95;99971.06;4950794;28;19923;-73
2021/10/10 12:15:01;;;;;;;;;;;;;;;19.65;54.79;99976.31;4975576;28;19923;-76
2021/10/10 12:17:35;;;;;;;;;;;;;;;21.11;56.19;99975.06;4906502;28;19927;-75
2021/10/10 12:20:15;;;;;;;;;;;;;;;21.16;56.68;99964.31;4907830;28;19922;-75
2021/10/10 12:22:47;;;;;;;;;;;;;;;20.96;56.31;99969.00;4906180;28;19927;-75
2021/10/10 12:25:21;;;;;;;;;;;;;;;21.44;57.58;99968.72;4906188;28;20657;-75
2021/10/10 12:27:59;;;;;;;;;;;;;;;21.89;54.81;99964.19;4907832;28;19919;-75
2021/10/10 12:30:30;;;;;;;;;;;;;;;21.00;58.93;99969.63;4956508;28;20294;-75
2021/10/10 12:32:56;;;;;;;;;;;;;;;21.04;57.85;99977.22;4966505;28;19915;-75
2021/10/10 12:35:21;;;;;;;;;;;;;;;20.93;53.31;99978.78;4976291;28;20481;-74
2021/10/10 12:37:51;;;;;;;;;;;;;;;19.46;54.66;99973.00;4969813;28;19946;-74